Time;durP1;ratioP1;P1;durP2;ratioP2;P2;SDS_P1;SDS_P2;PMS_P1;PMS_P2;Temp;Humidity;BMP_temperature;BMP_pressure;BME280_temperature;BME280_humidity;BME280_pressure;Samples;Min_cycle;Max_cycle;Signal;HPM_P1;HPM_P2
2021/10/01 00:01:46;;;;;;;7.72;1.55;;;13.30;86.70;;;;;;4901201;29;20131;-87
2021/10/01 00:04:12;;;;;;;8.23;1.60;;;13.30;86.60;;;;;;4901450;29;20055;-86
2021/10/01 00:06:38;;;;;;;8.25;1.50;;;13.30;86.30;;;;;;4900929;29;20044;-85
2021/10/01 00:09:05;;;;;;;7.20;1.40;;;13.30;86.30;;;;;;4901200;29;20131;-85
2021/10/01 00:11:31;;;;;;;7.80;1.63;;;13.30;86.10;;;;;;4901755;29;20204;-86
2021/10/01 00:13:57;;;;;;;6.43;1.48;;;13.30;86.10;;;;;;4900986;29;20048;-86
2021/10/01 00:16:23;;;;;;;6.32;1.50;;;13.30;86.30;;;;;;4899709;29;20058;-85
2021/10/01 00:18:48;;;;;;;7.90;1.20;;;13.30;86.80;;;;;;4900617;29;20044;-86
2021/10/01 00:21:14;;;;;;;9.25;1.67;;;13.30;86.60;;;;;;4901470;29;20179;-86
2021/10/01 00:23:39;;;;;;;6.32;1.38;;;13.30;86.60;;;;;;4900116;29;20051;-86
2021/10/01 00:26:06;;;;;;;6.90;1.80;;;13.30;87.20;;;;;;4900922;29;20044;-86
2021/10/01 00:28:31;;;;;;;8.32;1.70;;;13.30;87.30;;;;;;4899660;29;20036;-86
2021/10/01 00:30:57;;;;;;;7.28;1.25;;;13.30;87.10;;;;;;4900623;29;20504;-87
2021/10/01 00:43:21;;;;;;;5.38;1.60;;;13.20;87.00;;;;;;4913782;29;20166;-86
2021/10/01 00:46:45;;;;;;;;;;;;;;;;;;;;;
2021/10/01 00:50:25;;;;;;;;;;;;;;;;;;;;;
2021/10/01 01:01:02;;;;;;;;;;;13.10;88.40;;;;;;4768970;30;20551;-86
2021/10/01 01:04:21;;;;;;;8.23;1.42;;;13.00;88.00;;;;;;4751795;30;19934;-86
2021/10/01 01:07:23;;;;;;;4.17;1.07;;;13.00;88.40;;;;;;4743131;30;20240;-86
2021/10/01 01:10:14;;;;;;;9.73;1.50;;;13.00;88.60;;;;;;4752366;30;20086;-86
2021/10/01 01:13:39;;;;;;;9.43;1.50;;;13.00;88.30;;;;;;4750312;30;20055;-86
2021/10/01 01:39:12;;;;;;;;;;;;;;;;;;;;;
2021/10/01 01:53:58;;;;;;;4.85;1.15;;;13.00;87.60;;;;;;4764674;30;20048;-85
2021/10/01 02:04:14;;;;;;;5.90;1.55;;;13.00;87.10;;;;;;5052177;23;20087;-86
2021/10/01 02:06:40;;;;;;;7.03;1.30;;;13.00;87.50;;;;;;4898683;29;20095;-84
2021/10/01 02:09:06;;;;;;;7.22;1.38;;;13.00;87.30;;;;;;4899736;29;20047;-86
2021/10/01 02:11:32;;;;;;;7.38;1.40;;;13.00;87.10;;;;;;4899779;29;20052;-86
2021/10/01 02:13:59;;;;;;;5.85;1.23;;;13.00;87.10;;;;;;4899046;29;20060;-85
2021/10/01 02:16:26;;;;;;;7.65;1.55;;;13.00;87.30;;;;;;4898528;29;20048;-85
2021/10/01 02:18:54;;;;;;;7.10;1.40;;;13.00;87.40;;;;;;4899355;29;20052;-85
2021/10/01 02:21:22;;;;;;;7.97;1.40;;;13.00;87.40;;;;;;4898877;29;20763;-84
2021/10/01 02:23:48;;;;;;;3.95;1.15;;;13.00;87.20;;;;;;4899364;29;20048;-85
2021/10/01 02:26:36;;;;;;;6.10;1.42;;;13.00;87.30;;;;;;4899509;29;20067;-85
2021/10/01 02:29:27;;;;;;;7.22;1.58;;;13.00;87.50;;;;;;4893209;29;20079;-84
2021/10/01 02:32:05;;;;;;;6.63;1.77;;;13.00;87.40;;;;;;4899889;29;20485;-85
2021/10/01 02:34:43;;;;;;;6.63;1.42;;;13.00;87.60;;;;;;4898515;29;20187;-85
2021/10/01 02:37:09;;;;;;;6.07;1.20;;;13.00;87.60;;;;;;4885963;29;20048;-85
2021/10/01 02:39:36;;;;;;;5.88;1.10;;;13.00;87.70;;;;;;4895010;29;20056;-86
2021/10/01 02:42:03;;;;;;;5.72;1.30;;;13.00;87.80;;;;;;4898930;29;20048;-84
2021/10/01 02:44:29;;;;;;;6.85;1.30;;;13.00;87.70;;;;;;4898804;29;20075;-85
2021/10/01 02:46:55;;;;;;;7.18;1.40;;;13.00;87.60;;;;;;4899478;29;20044;-85
2021/10/01 02:49:24;;;;;;;6.15;1.30;;;13.00;87.70;;;;;;4898875;29;20087;-86
2021/10/01 02:51:55;;;;;;;9.45;1.48;;;13.00;87.80;;;;;;4899707;29;20127;-84
2021/10/01 02:54:32;;;;;;;6.45;1.10;;;13.00;87.70;;;;;;4902396;29;20130;-85
2021/10/01 02:57:07;;;;;;;7.82;1.40;;;13.00;87.60;;;;;;4894860;29;20112;-85
2021/10/01 02:59:35;;;;;;;7.10;1.42;;;13.00;87.60;;;;;;4902250;29;20412;-85
2021/10/01 03:02:01;;;;;;;6.10;1.40;;;13.00;87.60;;;;;;4901609;29;20123;-85
2021/10/01 03:04:28;;;;;;;6.72;1.25;;;13.00;87.50;;;;;;4900946;29;20207;-85
2021/10/01 03:06:58;;;;;;;8.98;1.48;;;13.00;87.50;;;;;;4902330;29;20048;-86
2021/10/01 03:09:28;;;;;;;5.40;1.38;;;13.00;87.60;;;;;;4902342;29;20119;-86
2021/10/01 03:11:57;;;;;;;6.07;0.95;;;13.00;87.40;;;;;;4902128;29;20409;-85
2021/10/01 03:19:22;;;;;;;7.68;1.40;;;13.00;87.40;;;;;;4936406;29;20050;-86
2021/10/01 03:26:51;;;;;;;;;;;;;;;;;;;;;
2021/10/01 03:32:30;;;;;;;6.00;1.05;;;12.90;88.60;;;;;;5265133;23;20064;-85
2021/10/01 03:34:57;;;;;;;5.80;1.20;;;12.90;89.00;;;;;;4892654;29;20069;-84
2021/10/01 03:37:23;;;;;;;10.77;1.38;;;12.90;89.30;;;;;;4901466;29;20123;-86
2021/10/01 03:39:56;;;;;;;8.18;1.50;;;12.90;89.50;;;;;;4900871;29;20123;-85
2021/10/01 03:42:22;;;;;;;9.02;1.33;;;12.90;89.70;;;;;;4909649;29;20044;-85
2021/10/01 03:44:51;;;;;;;6.25;1.30;;;12.90;89.90;;;;;;4901641;29;20421;-85
2021/10/01 03:47:19;;;;;;;6.13;1.23;;;12.80;90.00;;;;;;4901269;29;20043;-85
2021/10/01 03:49:45;;;;;;;8.10;1.40;;;12.90;90.10;;;;;;4902934;29;20139;-85
2021/10/01 03:52:12;;;;;;;7.65;1.40;;;12.90;90.20;;;;;;4901386;29;20064;-85
2021/10/01 03:54:43;;;;;;;7.55;1.30;;;12.80;90.20;;;;;;4882288;29;20056;-86
2021/10/01 03:57:12;;;;;;;6.45;1.20;;;12.90;90.30;;;;;;4901245;29;20075;-85
2021/10/01 03:59:38;;;;;;;5.68;1.30;;;12.80;90.30;;;;;;4900767;29;20047;-85
2021/10/01 04:02:04;;;;;;;9.93;1.50;;;12.80;90.30;;;;;;4900803;29;20520;-84
2021/10/01 04:04:32;;;;;;;6.32;1.38;;;12.80;90.30;;;;;;4901143;29;20044;-84
2021/10/01 04:06:59;;;;;;;10.07;1.40;;;12.80;90.30;;;;;;4901142;29;20040;-85
2021/10/01 04:09:24;;;;;;;7.15;1.45;;;12.80;90.30;;;;;;4890550;29;20049;-84
2021/10/01 04:11:53;;;;;;;5.88;1.10;;;12.80;90.20;;;;;;4896661;29;20568;-86
2021/10/01 04:14:21;;;;;;;8.05;1.30;;;12.80;90.10;;;;;;4900737;29;20040;-85
2021/10/01 04:16:47;;;;;;;5.85;1.10;;;12.80;90.20;;;;;;4900801;29;20040;-85
2021/10/01 04:19:13;;;;;;;7.47;1.52;;;12.80;90.20;;;;;;4901298;29;20111;-85
2021/10/01 04:28:58;;;;;;;5.70;1.55;;;12.80;90.00;;;;;;4867779;29;20140;-84
2021/10/01 04:31:23;;;;;;;5.85;1.23;;;12.80;90.30;;;;;;4869155;29;20165;-85
2021/10/01 04:33:49;;;;;;;6.43;1.20;;;12.80;90.10;;;;;;4880328;29;20049;-85
2021/10/01 04:36:18;;;;;;;5.25;1.15;;;12.80;90.20;;;;;;4875938;29;20041;-85
2021/10/01 04:38:44;;;;;;;4.20;1.35;;;12.70;90.10;;;;;;4890840;29;20053;-87
2021/10/01 04:41:11;;;;;;;7.43;1.25;;;12.80;90.30;;;;;;4879005;29;20040;-85
2021/10/01 04:43:36;;;;;;;4.80;1.20;;;12.70;90.20;;;;;;4881459;29;20080;-85
2021/10/01 04:46:04;;;;;;;7.30;1.40;;;12.70;90.30;;;;;;4876914;29;20064;-87
2021/10/01 04:48:29;;;;;;;6.65;1.13;;;12.70;90.20;;;;;;4881919;29;20045;-85
2021/10/01 04:50:55;;;;;;;4.57;1.40;;;12.70;90.10;;;;;;4880967;29;20062;-85
2021/10/01 04:53:20;;;;;;;8.38;1.40;;;12.60;90.20;;;;;;4877879;29;20136;-85
2021/10/01 04:55:46;;;;;;;6.18;1.20;;;12.60;90.20;;;;;;4876636;29;20049;-85
2021/10/01 04:58:12;;;;;;;10.80;1.40;;;12.60;90.10;;;;;;4864281;29;20490;-85
2021/10/01 05:00:38;;;;;;;8.00;1.27;;;12.60;90.10;;;;;;4867623;29;20041;-85
2021/10/01 05:03:04;;;;;;;5.63;1.20;;;12.60;90.00;;;;;;4880926;29;20051;-85
2021/10/01 05:05:30;;;;;;;6.07;1.45;;;12.50;90.00;;;;;;4877463;29;20100;-85
2021/10/01 05:07:55;;;;;;;6.95;1.20;;;12.50;90.00;;;;;;4865847;29;20057;-85
2021/10/01 05:10:21;;;;;;;6.25;1.20;;;12.50;90.00;;;;;;4872829;29;20379;-85
2021/10/01 05:12:47;;;;;;;6.28;1.45;;;12.40;90.10;;;;;;4887193;29;20045;-84
2021/10/01 05:15:17;;;;;;;7.57;1.40;;;12.40;90.20;;;;;;4875672;29;20060;-85
2021/10/01 05:17:44;;;;;;;6.28;1.33;;;12.40;90.30;;;;;;4880155;29;20793;-85
2021/10/01 05:20:11;;;;;;;6.68;1.50;;;12.40;90.30;;;;;;4874653;29;20045;-86
2021/10/01 05:22:38;;;;;;;7.95;1.40;;;12.40;90.40;;;;;;4872110;29;20119;-85
2021/10/01 05:25:05;;;;;;;5.28;1.20;;;12.40;90.30;;;;;;4879236;29;20076;-86
2021/10/01 05:27:31;;;;;;;7.28;1.23;;;12.40;90.30;;;;;;4875682;29;20065;-85
2021/10/01 05:29:57;;;;;;;5.93;1.20;;;12.40;90.30;;;;;;4906791;29;20497;-85
2021/10/01 05:32:22;;;;;;;6.63;1.40;;;12.40;90.30;;;;;;4908448;29;20126;-85
2021/10/01 05:34:48;;;;;;;6.38;1.60;;;12.40;90.20;;;;;;4889794;29;20072;-85
2021/10/01 05:37:17;;;;;;;5.70;1.23;;;12.40;90.30;;;;;;4912227;29;20048;-84
2021/10/01 05:39:46;;;;;;;4.90;1.30;;;12.40;90.30;;;;;;4909716;29;20055;-85
2021/10/01 05:42:11;;;;;;;7.43;1.40;;;12.40;90.30;;;;;;4900407;29;20056;-86
2021/10/01 05:44:37;;;;;;;6.03;1.10;;;12.40;90.30;;;;;;4901465;29;20143;-86
2021/10/01 05:47:06;;;;;;;6.07;1.30;;;12.40;90.30;;;;;;4885806;29;20044;-86
2021/10/01 05:49:38;;;;;;;10.40;1.40;;;12.40;90.30;;;;;;4890776;29;20048;-85
2021/10/01 05:54:43;;;;;;;5.90;1.25;;;12.50;90.40;;;;;;4886894;29;20147;-85
2021/10/01 05:57:10;;;;;;;10.25;1.50;;;12.50;90.40;;;;;;4915360;29;20512;-84
2021/10/01 05:59:42;;;;;;;6.65;1.20;;;12.40;90.20;;;;;;4880479;29;20049;-85
2021/10/01 06:02:13;;;;;;;7.10;1.65;;;12.50;90.40;;;;;;4897305;29;20048;-85
2021/10/01 06:04:41;;;;;;;7.85;1.30;;;12.50;90.40;;;;;;4884697;29;20037;-85
2021/10/01 06:07:06;;;;;;;8.77;1.42;;;12.50;90.30;;;;;;4881633;29;20072;-85
2021/10/01 06:09:32;;;;;;;5.43;1.08;;;12.50;90.20;;;;;;4896863;29;20095;-85
2021/10/01 06:11:58;;;;;;;6.75;1.10;;;12.50;90.20;;;;;;4907875;29;20134;-85
2021/10/01 06:14:25;;;;;;;5.72;1.23;;;12.50;90.30;;;;;;4914631;29;20054;-84
2021/10/01 06:16:52;;;;;;;5.97;1.20;;;12.50;90.20;;;;;;4933320;29;20079;-84
2021/10/01 06:19:18;;;;;;;4.57;1.08;;;12.50;90.20;;;;;;4888451;29;20048;-85
2021/10/01 06:21:44;;;;;;;7.10;1.10;;;12.50;90.20;;;;;;4904699;29;20043;-85
2021/10/01 06:24:10;;;;;;;5.60;1.13;;;12.50;90.10;;;;;;4904652;29;20056;-85
2021/10/01 06:26:36;;;;;;;5.97;1.23;;;12.50;90.10;;;;;;4904017;29;20442;-85
2021/10/01 06:29:02;;;;;;;6.30;1.40;;;12.50;90.10;;;;;;4922902;29;20061;-86
2021/10/01 06:31:28;;;;;;;6.30;1.20;;;12.50;90.00;;;;;;4909391;23;20449;-87
2021/10/01 06:33:53;;;;;;;4.68;1.20;;;12.50;90.00;;;;;;4919680;29;20044;-85
2021/10/01 06:36:22;;;;;;;6.90;1.60;;;12.50;90.00;;;;;;4919669;29;20107;-85
2021/10/01 06:38:49;;;;;;;4.80;1.20;;;12.50;89.90;;;;;;4925225;29;20091;-85
2021/10/01 06:41:14;;;;;;;4.72;1.05;;;12.50;89.80;;;;;;4936896;29;20043;-85
2021/10/01 06:43:42;;;;;;;6.10;1.20;;;12.50;90.00;;;;;;4915578;29;20120;-85
2021/10/01 06:46:18;;;;;;;5.75;1.20;;;12.50;90.00;;;;;;4912008;29;20054;-85
2021/10/01 07:23:38;;;;;;;6.88;1.30;;;12.70;89.70;;;;;;4792441;29;20063;-82
2021/10/01 08:19:25;;;;;;;8.05;1.40;;;13.40;88.00;;;;;;4807717;29;20553;-84
2021/10/01 08:21:56;;;;;;;8.90;1.20;;;13.50;87.90;;;;;;4773615;29;20043;-83
2021/10/01 08:24:22;;;;;;;6.55;1.13;;;13.50;87.80;;;;;;4784406;29;20057;-83
2021/10/01 08:26:49;;;;;;;5.82;1.30;;;13.50;87.50;;;;;;4774855;30;20047;-84
2021/10/01 08:29:16;;;;;;;6.30;1.35;;;13.50;87.40;;;;;;4777152;29;20061;-83
2021/10/01 08:31:42;;;;;;;7.53;1.20;;;13.60;87.20;;;;;;4795909;29;20137;-85
2021/10/01 08:34:09;;;;;;;6.68;1.20;;;13.60;87.00;;;;;;4807991;29;20047;-84
2021/10/01 08:36:35;;;;;;;8.25;1.20;;;13.70;87.10;;;;;;4794124;29;20061;-85
2021/10/01 08:39:01;;;;;;;6.40;1.05;;;13.70;87.20;;;;;;4790682;29;20042;-83
2021/10/01 08:41:26;;;;;;;7.72;1.48;;;13.80;87.30;;;;;;4787262;29;20043;-85
2021/10/01 08:43:52;;;;;;;5.78;1.02;;;13.80;87.20;;;;;;4793155;29;20057;-84
2021/10/01 08:46:18;;;;;;;4.47;1.02;;;13.80;87.20;;;;;;4790549;29;20051;-85
2021/10/01 08:48:45;;;;;;;8.75;1.30;;;13.90;87.10;;;;;;4787346;29;20511;-85
2021/10/01 08:51:12;;;;;;;5.80;1.13;;;13.90;86.80;;;;;;4790607;29;20114;-85
2021/10/01 08:53:38;;;;;;;7.60;1.35;;;13.90;86.90;;;;;;4791523;29;20070;-85
2021/10/01 08:56:05;;;;;;;9.10;1.20;;;14.00;86.90;;;;;;4789291;29;20100;-83
2021/10/01 08:58:30;;;;;;;5.15;0.98;;;14.00;86.90;;;;;;4788220;29;20103;-82
2021/10/01 09:00:57;;;;;;;6.30;1.15;;;14.00;86.80;;;;;;4797306;29;20059;-82
2021/10/01 09:03:23;;;;;;;6.75;1.35;;;14.10;86.70;;;;;;4785568;29;20108;-83
2021/10/01 09:05:49;;;;;;;8.68;1.08;;;14.10;86.60;;;;;;4780101;29;20500;-84
2021/10/01 09:08:23;;;;;;;6.78;1.33;;;14.20;86.30;;;;;;4788266;29;20073;-81
2021/10/01 09:10:59;;;;;;;5.28;1.17;;;14.20;86.20;;;;;;4787715;29;20089;-81
2021/10/01 09:13:25;;;;;;;5.68;1.27;;;14.20;86.10;;;;;;4789615;29;20053;-82
2021/10/01 09:16:00;;;;;;;7.05;1.20;;;14.20;86.10;;;;;;4789994;29;20062;-82
2021/10/01 09:18:32;;;;;;;5.45;1.10;;;14.20;86.00;;;;;;4789508;29;20520;-81
2021/10/01 09:21:20;;;;;;;7.72;1.20;;;14.30;86.00;;;;;;4784938;29;20070;-81
2021/10/01 09:24:00;;;;;;;7.40;1.10;;;14.30;85.90;;;;;;4780579;29;20047;-81
2021/10/01 09:26:29;;;;;;;5.93;1.08;;;14.40;86.10;;;;;;4777634;29;20108;-81
2021/10/01 09:28:59;;;;;;;4.45;1.17;;;14.40;86.20;;;;;;4787218;29;20047;-81
2021/10/01 09:31:46;;;;;;;6.50;1.40;;;14.40;85.90;;;;;;4787471;29;20058;-81
2021/10/01 09:34:14;;;;;;;11.23;1.48;;;14.50;86.20;;;;;;4788591;29;20051;-81
2021/10/01 09:36:42;;;;;;;8.65;1.30;;;14.50;86.40;;;;;;4789393;29;20051;-81
2021/10/01 09:39:23;;;;;;;7.68;1.45;;;14.50;86.10;;;;;;4798707;29;20138;-82
2021/10/01 09:41:49;;;;;;;6.32;1.25;;;14.60;85.70;;;;;;4781358;29;20051;-81
2021/10/01 09:44:15;;;;;;;6.68;1.30;;;14.60;85.60;;;;;;4788547;29;20481;-81
2021/10/01 09:46:47;;;;;;;6.00;1.10;;;14.60;85.50;;;;;;4786092;29;20420;-82
2021/10/01 09:49:14;;;;;;;9.15;1.40;;;14.70;85.30;;;;;;4780438;30;20051;-82
2021/10/01 09:51:50;;;;;;;6.65;1.10;;;14.70;85.20;;;;;;4780079;29;20058;-82
2021/10/01 09:54:19;;;;;;;6.13;1.17;;;14.80;84.70;;;;;;4775574;29;20044;-81
2021/10/01 09:56:45;;;;;;;4.82;1.00;;;14.80;84.90;;;;;;4775225;29;20058;-81
2021/10/01 09:59:22;;;;;;;9.40;1.10;;;14.80;84.60;;;;;;4784839;29;20066;-81
2021/10/01 10:02:10;;;;;;;6.25;1.20;;;14.80;85.20;;;;;;4777744;29;20582;-81
2021/10/01 10:04:55;;;;;;;5.82;1.40;;;14.80;84.40;;;;;;4775686;29;20050;-81
2021/10/01 10:07:23;;;;;;;7.50;1.10;;;14.90;84.50;;;;;;4789834;29;20058;-81
2021/10/01 10:10:03;;;;;;;8.23;1.30;;;14.90;84.60;;;;;;4793237;29;20133;-82
2021/10/01 10:12:36;;;;;;;6.40;1.10;;;14.90;84.50;;;;;;4783133;29;20467;-82
2021/10/01 10:15:04;;;;;;;7.13;1.13;;;15.00;84.50;;;;;;4782592;29;20118;-82
2021/10/01 10:17:32;;;;;;;5.65;1.30;;;15.00;84.80;;;;;;4797777;29;20506;-82
2021/10/01 10:20:00;;;;;;;5.25;1.00;;;15.00;84.80;;;;;;4775264;29;20071;-81
2021/10/01 10:22:28;;;;;;;4.50;1.00;;;15.00;84.90;;;;;;4780717;29;20047;-81
2021/10/01 10:24:55;;;;;;;5.50;1.27;;;15.10;85.30;;;;;;4781509;29;20047;-81
2021/10/01 10:27:22;;;;;;;5.25;1.05;;;15.10;85.20;;;;;;4785112;29;20043;-82
2021/10/01 10:29:48;;;;;;;6.20;1.25;;;15.10;85.20;;;;;;4778881;29;20055;-81
2021/10/01 10:32:16;;;;;;;7.30;1.30;;;15.10;85.50;;;;;;4780718;29;20400;-81
2021/10/01 10:34:53;;;;;;;6.60;1.25;;;15.10;85.80;;;;;;4776228;29;20058;-81
2021/10/01 10:37:21;;;;;;;7.75;1.15;;;15.20;86.10;;;;;;4780935;29;20496;-81
2021/10/01 10:39:52;;;;;;;7.30;1.00;;;15.20;86.40;;;;;;4782591;29;20054;-83
2021/10/01 10:42:32;;;;;;;11.80;1.70;;;15.20;86.50;;;;;;4782332;29;20424;-84
2021/10/01 10:45:20;;;;;;;10.07;1.30;;;15.20;86.90;;;;;;4781673;29;20106;-81
2021/10/01 10:48:01;;;;;;;5.25;1.17;;;15.20;87.00;;;;;;4781884;29;20562;-83
2021/10/01 10:50:47;;;;;;;5.40;1.23;;;15.20;87.20;;;;;;4781810;29;20092;-84
2021/10/01 10:53:17;;;;;;;6.53;1.50;;;15.30;86.60;;;;;;4777596;29;20493;-82
2021/10/01 10:55:50;;;;;;;5.32;1.00;;;15.30;86.50;;;;;;4791642;29;20096;-84
2021/10/01 10:58:19;;;;;;;;;;;15.30;86.20;;;;;;4780021;29;20105;-83
2021/10/01 11:00:45;;;;;;;7.70;1.20;;;15.30;86.30;;;;;;4781187;29;20369;-82
2021/10/01 11:03:23;;;;;;;5.38;1.05;;;15.40;86.70;;;;;;4784012;29;20055;-81
2021/10/01 11:06:13;;;;;;;6.20;1.10;;;15.40;87.10;;;;;;4776109;29;20043;-81
2021/10/01 11:09:09;;;;;;;6.13;1.30;;;15.50;86.70;;;;;;4785056;29;20184;-81
2021/10/01 11:11:40;;;;;;;8.00;1.20;;;15.60;86.60;;;;;;4782495;29;20062;-81
2021/10/01 11:14:15;;;;;;;5.25;1.00;;;15.70;86.40;;;;;;4785105;29;20043;-81
2021/10/01 11:16:45;;;;;;;8.82;1.30;;;15.80;86.20;;;;;;4798611;29;20054;-80
2021/10/01 11:19:10;;;;;;;8.82;1.20;;;15.90;86.10;;;;;;4786489;29;20053;-80
2021/10/01 11:21:42;;;;;;;4.60;1.20;;;15.90;85.70;;;;;;4813058;29;20055;-80
2021/10/01 11:24:13;;;;;;;6.32;1.20;;;16.00;85.10;;;;;;4786311;29;20051;-79
2021/10/01 11:26:42;;;;;;;6.03;1.02;;;16.10;85.00;;;;;;4781280;29;20055;-81
2021/10/01 11:29:30;;;;;;;6.00;1.00;;;16.10;84.80;;;;;;4801840;29;20058;-81
2021/10/01 11:31:59;;;;;;;5.93;1.08;;;16.10;84.30;;;;;;4792795;29;20401;-81
2021/10/01 11:34:41;;;;;;;9.27;1.45;;;16.10;84.50;;;;;;4802446;29;20051;-80
2021/10/01 11:37:25;;;;;;;4.60;1.08;;;16.10;84.20;;;;;;4792809;29;20059;-80
2021/10/01 11:39:52;;;;;;;5.57;1.10;;;16.10;84.20;;;;;;4788994;29;20097;-81
2021/10/01 11:42:27;;;;;;;6.75;1.48;;;16.10;84.50;;;;;;4790014;29;20089;-81
2021/10/01 11:44:55;;;;;;;5.68;1.30;;;16.10;84.60;;;;;;4787342;29;20514;-80
2021/10/01 11:47:21;;;;;;;7.65;1.15;;;16.10;84.70;;;;;;4786579;29;20141;-81
2021/10/01 11:49:56;;;;;;;4.45;1.27;;;16.10;85.10;;;;;;4804083;29;20394;-81
2021/10/01 11:52:23;;;;;;;7.82;1.23;;;16.10;85.30;;;;;;4801742;29;20582;-80
2021/10/01 11:54:53;;;;;;;6.43;1.38;;;16.00;85.20;;;;;;4787997;29;20078;-80
2021/10/01 11:57:21;;;;;;;6.28;1.30;;;16.00;85.10;;;;;;4787433;29;20420;-80
2021/10/01 12:00:08;;;;;;;5.32;1.30;;;16.00;85.10;;;;;;4790439;29;20089;-81
2021/10/01 12:02:42;;;;;;;10.07;1.52;;;16.00;84.90;;;;;;4787993;29;20523;-80
2021/10/01 12:05:50;;;;;;;6.10;1.10;;;15.90;85.20;;;;;;4789952;29;20061;-80
2021/10/01 12:08:20;;;;;;;7.75;1.60;;;15.90;85.50;;;;;;4752200;30;20055;-81
2021/10/01 12:10:54;;;;;;;7.57;1.33;;;15.80;87.00;;;;;;4744360;30;20465;-81
2021/10/01 12:13:22;;;;;;;7.43;1.60;;;15.70;87.80;;;;;;4787844;29;20085;-81
2021/10/01 12:16:04;;;;;;;6.72;1.67;;;15.60;88.50;;;;;;4790173;29;20054;-82
2021/10/01 12:18:30;;;;;;;8.82;1.55;;;15.50;89.50;;;;;;4790284;29;20127;-81
2021/10/01 12:20:57;;;;;;;7.70;1.40;;;15.40;89.90;;;;;;4789392;29;20097;-81
2021/10/01 12:23:49;;;;;;;4.82;1.23;;;15.30;90.20;;;;;;4787511;29;20056;-82
2021/10/01 12:26:18;;;;;;;6.70;1.38;;;15.20;90.50;;;;;;4775574;30;20043;-81
2021/10/01 12:29:08;;;;;;;8.43;1.60;;;15.10;90.70;;;;;;4791525;29;20057;-81
2021/10/01 12:31:40;;;;;;;5.80;1.23;;;15.10;90.70;;;;;;4781762;29;20175;-81
2021/10/01 12:34:13;;;;;;;7.07;1.70;;;15.10;91.00;;;;;;4778770;29;20063;-84
2021/10/01 12:36:41;;;;;;;8.20;1.55;;;15.00;91.20;;;;;;4781999;29;20078;-84
2021/10/01 12:39:06;;;;;;;7.15;1.55;;;15.00;91.30;;;;;;4775248;30;20102;-84
2021/10/01 12:41:32;;;;;;;5.75;1.45;;;15.00;91.40;;;;;;4788382;29;20078;-85
2021/10/01 12:44:00;;;;;;;7.53;1.50;;;15.00;91.50;;;;;;4782084;29;20397;-87
2021/10/01 12:46:39;;;;;;;7.38;1.73;;;15.00;91.60;;;;;;4773112;30;20557;-86
2021/10/01 12:49:26;;;;;;;5.18;1.42;;;15.00;91.60;;;;;;4772285;30;20570;-86
2021/10/01 12:52:17;;;;;;;7.28;1.63;;;15.00;91.60;;;;;;4783603;29;20420;-85
2021/10/01 12:54:59;;;;;;;9.48;1.95;;;15.00;91.80;;;;;;4779091;30;20406;-86
2021/10/01 12:57:28;;;;;;;7.13;1.40;;;15.00;92.00;;;;;;4778351;30;20043;-87
2021/10/01 13:00:03;;;;;;;6.22;1.75;;;14.90;92.00;;;;;;4773123;30;20807;-86
2021/10/01 13:02:51;;;;;;;6.03;1.55;;;15.00;91.90;;;;;;4784977;29;20063;-86
2021/10/01 13:05:41;;;;;;;6.50;1.50;;;15.00;91.80;;;;;;4789684;29;20061;-85
2021/10/01 13:08:08;;;;;;;6.85;2.05;;;15.00;91.80;;;;;;4774422;30;20070;-86
2021/10/01 13:10:53;;;;;;;7.95;1.63;;;15.10;92.10;;;;;;4772627;30;20417;-86
2021/10/01 13:13:24;;;;;;;6.88;1.90;;;15.10;92.20;;;;;;4787488;29;20053;-87
2021/10/01 13:19:23;;;;;;;5.43;1.50;;;15.10;92.10;;;;;;4767744;30;20059;-84
2021/10/01 13:22:04;;;;;;;6.63;1.95;;;15.10;92.30;;;;;;4770369;30;20100;-86
2021/10/01 13:24:33;;;;;;;7.18;1.70;;;15.20;92.50;;;;;;4777707;29;21346;-85
2021/10/01 13:27:59;;;;;;;5.95;1.70;;;15.20;92.50;;;;;;4764856;30;20461;-83
2021/10/01 13:30:42;;;;;;;7.43;1.85;;;15.20;92.40;;;;;;4732808;30;20048;-82
2021/10/01 13:33:08;;;;;;;;;;;15.20;92.40;;;;;;4733415;30;20072;-81
2021/10/01 13:35:52;;;;;;;19.23;8.70;;;15.20;92.30;;;;;;4733316;30;19930;-82
2021/10/01 13:38:56;;;;;;;18.35;8.30;;;15.30;92.50;;;;;;4733923;30;20153;-82
2021/10/01 13:41:21;;;;;;;23.08;10.27;;;15.20;92.40;;;;;;4746000;29;20058;-84
2021/10/01 13:43:50;;;;;;;10.10;3.58;;;15.30;92.50;;;;;;4770998;30;20395;-85
2021/10/01 13:46:18;;;;;;;9.85;2.00;;;15.30;92.60;;;;;;4773901;30;20075;-84
2021/10/01 13:48:43;;;;;;;7.78;2.05;;;15.40;92.50;;;;;;4769552;30;20226;-84
2021/10/01 13:51:12;;;;;;;7.70;2.30;;;15.40;92.40;;;;;;4777323;29;20313;-85
2021/10/01 13:53:48;;;;;;;7.35;1.83;;;15.40;92.20;;;;;;4771971;29;20035;-84
2021/10/01 13:56:22;;;;;;;9.00;1.90;;;15.40;92.00;;;;;;4768788;30;20043;-86
2021/10/01 13:58:48;;;;;;;6.32;1.85;;;15.40;91.80;;;;;;4754312;30;20130;-87
2021/10/01 14:01:15;;;;;;;7.88;1.70;;;15.40;91.80;;;;;;4770631;30;20531;-87
2021/10/01 14:03:54;;;;;;;6.88;1.92;;;15.40;91.60;;;;;;4770968;30;20055;-86
2021/10/01 14:06:19;;;;;;;6.05;1.52;;;15.30;91.30;;;;;;4766981;30;20055;-86
2021/10/01 14:08:45;;;;;;;6.35;1.40;;;15.40;91.20;;;;;;4764129;30;20386;-85
2021/10/01 14:11:11;;;;;;;10.30;1.80;;;15.40;91.20;;;;;;4770818;29;20119;-85
2021/10/01 14:13:44;;;;;;;7.70;1.80;;;15.30;91.00;;;;;;4764049;30;20074;-86
2021/10/01 14:16:10;;;;;;;6.13;1.60;;;15.40;91.00;;;;;;4779508;30;20059;-85
2021/10/01 14:18:38;;;;;;;5.35;1.58;;;15.40;91.00;;;;;;4766918;30;20055;-86
2021/10/01 14:21:04;;;;;;;8.13;1.60;;;15.40;90.90;;;;;;4769669;30;20134;-86
2021/10/01 14:23:32;;;;;;;5.85;1.33;;;15.40;90.70;;;;;;4766189;30;20611;-85
2021/10/01 14:25:58;;;;;;;9.05;1.75;;;15.40;90.70;;;;;;4769640;30;20068;-84
2021/10/01 14:28:25;;;;;;;8.00;1.42;;;15.40;90.90;;;;;;4780813;29;20512;-86
2021/10/01 14:30:51;;;;;;;7.32;1.38;;;15.40;90.60;;;;;;4772550;30;20080;-85
2021/10/01 14:33:16;;;;;;;6.25;1.40;;;15.40;90.60;;;;;;4770067;30;20074;-87
2021/10/01 14:35:42;;;;;;;7.10;1.50;;;15.40;90.40;;;;;;4770703;30;20047;-87
2021/10/01 14:38:13;;;;;;;7.43;1.45;;;15.30;90.40;;;;;;4772950;30;20054;-84
2021/10/01 14:40:41;;;;;;;6.88;1.50;;;15.40;90.50;;;;;;4777702;29;20047;-85
2021/10/01 14:43:07;;;;;;;10.02;1.55;;;15.30;90.60;;;;;;4770964;30;20047;-84
2021/10/01 14:45:32;;;;;;;5.72;1.50;;;15.30;90.50;;;;;;4768758;30;20047;-83
2021/10/01 14:47:58;;;;;;;8.50;1.50;;;15.30;90.50;;;;;;4771504;30;20051;-84
2021/10/01 14:50:27;;;;;;;6.38;1.30;;;15.30;90.60;;;;;;4771458;30;20144;-84
2021/10/01 14:52:52;;;;;;;4.78;1.40;;;15.30;90.70;;;;;;4773143;30;20051;-85
2021/10/01 14:55:18;;;;;;;3.88;1.17;;;15.30;90.80;;;;;;4787773;30;20535;-85
2021/10/01 14:57:50;;;;;;;5.93;1.27;;;15.30;90.90;;;;;;4789116;30;20463;-84
2021/10/01 15:00:16;;;;;;;8.75;1.63;;;15.30;90.90;;;;;;4773339;30;20371;-84
2021/10/01 15:02:42;;;;;;;12.93;1.83;;;15.30;90.90;;;;;;4773257;30;20078;-85
2021/10/01 15:05:08;;;;;;;6.18;1.42;;;15.40;91.00;;;;;;4777773;30;20132;-85
2021/10/01 15:07:34;;;;;;;6.38;1.50;;;15.40;91.00;;;;;;4772929;30;20142;-86
2021/10/01 15:09:59;;;;;;;9.15;1.30;;;15.40;90.80;;;;;;4772848;30;20051;-84
2021/10/01 15:12:25;;;;;;;5.53;1.40;;;15.40;90.70;;;;;;4773092;30;20063;-85
2021/10/01 15:14:54;;;;;;;3.97;1.27;;;15.40;90.50;;;;;;4770537;30;20047;-86
2021/10/01 15:17:29;;;;;;;6.43;1.35;;;15.40;90.50;;;;;;4772172;30;20073;-87
2021/10/01 15:19:55;;;;;;;6.55;1.50;;;15.50;90.30;;;;;;4773497;29;20062;-85
2021/10/01 15:22:27;;;;;;;8.13;2.90;;;15.50;90.30;;;;;;4771717;29;20230;-84
2021/10/01 15:24:53;;;;;;;14.77;6.28;;;15.50;90.10;;;;;;4773715;30;20047;-87
2021/10/01 15:27:42;;;;;;;21.30;8.60;;;15.50;90.10;;;;;;4769215;30;20508;-86
2021/10/01 15:30:14;;;;;;;7.38;1.88;;;15.60;90.10;;;;;;4774751;29;20444;-84
2021/10/01 15:32:46;;;;;;;5.90;1.45;;;15.50;89.80;;;;;;4777747;30;20047;-87
2021/10/01 15:35:24;;;;;;;7.00;1.40;;;15.60;89.60;;;;;;4772637;30;20055;-86
2021/10/01 15:37:56;;;;;;;6.30;1.48;;;15.60;89.10;;;;;;4763499;30;20067;-86
2021/10/01 15:40:39;;;;;;;8.15;1.30;;;15.60;90.00;;;;;;4772088;30;20052;-85
2021/10/01 15:43:38;;;;;;;5.53;1.23;;;15.60;88.40;;;;;;4766869;30;20070;-88
2021/10/01 15:46:07;;;;;;;5.95;1.20;;;15.60;88.50;;;;;;4772555;30;20062;-86
2021/10/01 15:48:37;;;;;;;6.05;1.20;;;15.60;88.80;;;;;;4784922;29;20558;-88
2021/10/01 15:51:32;;;;;;;5.90;1.20;;;15.60;88.50;;;;;;4773384;30;20397;-85
2021/10/01 15:57:45;;;;;;;4.95;1.17;;;15.60;87.80;;;;;;4758158;29;20047;-86
2021/10/01 16:00:13;;;;;;;8.80;1.42;;;15.60;88.00;;;;;;4772152;30;20420;-85
2021/10/01 16:02:42;;;;;;;8.43;1.35;;;15.60;88.20;;;;;;4772986;30;20497;-85
2021/10/01 16:05:11;;;;;;;4.78;1.23;;;15.60;88.10;;;;;;4772425;30;20083;-85
2021/10/01 16:07:37;;;;;;;7.13;1.30;;;15.60;88.50;;;;;;4773025;29;20467;-86
2021/10/01 16:10:05;;;;;;;5.30;1.50;;;15.50;88.40;;;;;;4790320;29;20050;-85
2021/10/01 16:12:31;;;;;;;5.05;1.20;;;15.60;88.60;;;;;;4765874;30;20051;-85